sensor_id;sensor_type;location;lat;lon;timestamp;temperature;humidity
60723;DHT22;46574;52.818;6.516;2022-10-31T00:02:02;13.20;99.90
60723;DHT22;46574;52.818;6.516;2022-10-31T00:04:28;13.20;99.90
60723;DHT22;46574;52.818;6.516;2022-10-31T00:06:54;13.20;99.90
60723;DHT22;46574;52.818;6.516;2022-10-31T00:09:19;13.20;99.90
60723;DHT22;46574;52.818;6.516;2022-10-31T00:11:45;13.20;99.90
60723;DHT22;46574;52.818;6.516;2022-10-31T00:14:10;13.10;99.90
60723;DHT22;46574;52.818;6.516;2022-10-31T00:16:36;13.10;99.90
60723;DHT22;46574;52.818;6.516;2022-10-31T00:19:05;13.00;99.90
60723;DHT22;46574;52.818;6.516;2022-10-31T00:21:32;13.00;99.90
60723;DHT22;46574;52.818;6.516;2022-10-31T00:23:58;13.00;99.90
60723;DHT22;46574;52.818;6.516;2022-10-31T00:26:26;13.00;99.90
60723;DHT22;46574;52.818;6.516;2022-10-31T00:28:52;12.90;99.90
60723;DHT22;46574;52.818;6.516;2022-10-31T00:31:17;12.90;99.90
60723;DHT22;46574;52.818;6.516;2022-10-31T00:33:44;12.90;99.90
60723;DHT22;46574;52.818;6.516;2022-10-31T00:36:17;12.90;99.90
60723;DHT22;46574;52.818;6.516;2022-10-31T00:38:44;12.90;99.90
60723;DHT22;46574;52.818;6.516;2022-10-31T00:41:11;12.90;99.90
60723;DHT22;46574;52.818;6.516;2022-10-31T00:43:37;12.90;99.90
60723;DHT22;46574;52.818;6.516;2022-10-31T00:46:03;12.90;99.90
60723;DHT22;46574;52.818;6.516;2022-10-31T00:48:29;12.90;99.90
60723;DHT22;46574;52.818;6.516;2022-10-31T00:50:55;12.80;99.90
60723;DHT22;46574;52.818;6.516;2022-10-31T00:53:20;12.70;99.90
60723;DHT22;46574;52.818;6.516;2022-10-31T00:55:46;12.70;99.90
60723;DHT22;46574;52.818;6.516;2022-10-31T00:58:12;12.70;99.90
60723;DHT22;46574;52.818;6.516;2022-10-31T01:00:38;12.70;99.90
60723;DHT22;46574;52.818;6.516;2022-10-31T01:03:04;12.70;99.90
60723;DHT22;46574;52.818;6.516;2022-10-31T01:05:30;12.70;99.90
60723;DHT22;46574;52.818;6.516;2022-10-31T01:07:55;12.70;99.90
60723;DHT22;46574;52.818;6.516;2022-10-31T01:10:21;12.70;99.90
60723;DHT22;46574;52.818;6.516;2022-10-31T01:12:48;12.70;99.90
60723;DHT22;46574;52.818;6.516;2022-10-31T01:15:17;12.70;99.90
60723;DHT22;46574;52.818;6.516;2022-10-31T01:17:43;12.60;99.90
60723;DHT22;46574;52.818;6.516;2022-10-31T01:20:11;12.60;99.90
60723;DHT22;46574;52.818;6.516;2022-10-31T01:22:37;12.60;99.90
60723;DHT22;46574;52.818;6.516;2022-10-31T01:25:03;12.50;99.90
60723;DHT22;46574;52.818;6.516;2022-10-31T01:27:31;12.60;99.90
60723;DHT22;46574;52.818;6.516;2022-10-31T01:29:56;12.60;99.90
60723;DHT22;46574;52.818;6.516;2022-10-31T01:32:22;12.50;99.90
60723;DHT22;46574;52.818;6.516;2022-10-31T01:34:48;12.50;99.90
60723;DHT22;46574;52.818;6.516;2022-10-31T01:37:13;12.60;99.90
60723;DHT22;46574;52.818;6.516;2022-10-31T01:39:39;12.60;99.90
60723;DHT22;46574;52.818;6.516;2022-10-31T01:42:04;12.60;99.90
60723;DHT22;46574;52.818;6.516;2022-10-31T01:47:17;12.60;99.90
60723;DHT22;46574;52.818;6.516;2022-10-31T01:49:57;12.60;99.90
60723;DHT22;46574;52.818;6.516;2022-10-31T01:52:27;12.60;99.90
60723;DHT22;46574;52.818;6.516;2022-10-31T01:57:34;12.50;99.90
60723;DHT22;46574;52.818;6.516;2022-10-31T02:00:04;12.50;99.90
60723;DHT22;46574;52.818;6.516;2022-10-31T02:02:30;12.40;99.90
60723;DHT22;46574;52.818;6.516;2022-10-31T02:04:58;12.40;99.90
60723;DHT22;46574;52.818;6.516;2022-10-31T02:07:39;12.40;99.90
60723;DHT22;46574;52.818;6.516;2022-10-31T02:10:07;12.40;99.90
60723;DHT22;46574;52.818;6.516;2022-10-31T02:12:34;12.30;99.90
60723;DHT22;46574;52.818;6.516;2022-10-31T02:15:02;12.30;99.90
60723;DHT22;46574;52.818;6.516;2022-10-31T02:17:29;12.30;99.90
60723;DHT22;46574;52.818;6.516;2022-10-31T02:20:32;12.30;99.90
60723;DHT22;46574;52.818;6.516;2022-10-31T02:26:13;12.30;99.90
60723;DHT22;46574;52.818;6.516;2022-10-31T02:34:34;12.20;99.90
60723;DHT22;46574;52.818;6.516;2022-10-31T02:42:43;12.10;99.90
60723;DHT22;46574;52.818;6.516;2022-10-31T02:47:49;12.10;99.90
60723;DHT22;46574;52.818;6.516;2022-10-31T02:50:39;12.10;99.90
60723;DHT22;46574;52.818;6.516;2022-10-31T02:53:04;12.10;99.90
60723;DHT22;46574;52.818;6.516;2022-10-31T02:58:09;12.00;99.90
60723;DHT22;46574;52.818;6.516;2022-10-31T03:06:35;12.00;99.90
60723;DHT22;46574;52.818;6.516;2022-10-31T03:11:53;11.80;99.90
60723;DHT22;46574;52.818;6.516;2022-10-31T03:14:53;11.80;99.90
60723;DHT22;46574;52.818;6.516;2022-10-31T03:17:34;11.80;99.90
60723;DHT22;46574;52.818;6.516;2022-10-31T03:20:03;11.80;99.90
60723;DHT22;46574;52.818;6.516;2022-10-31T03:22:31;11.80;99.90
60723;DHT22;46574;52.818;6.516;2022-10-31T03:25:00;11.80;99.90
60723;DHT22;46574;52.818;6.516;2022-10-31T03:27:29;11.80;99.90
60723;DHT22;46574;52.818;6.516;2022-10-31T03:29:58;11.80;99.90
60723;DHT22;46574;52.818;6.516;2022-10-31T03:32:36;11.70;99.90
60723;DHT22;46574;52.818;6.516;2022-10-31T03:35:05;11.80;99.90
60723;DHT22;46574;52.818;6.516;2022-10-31T03:37:34;11.80;99.90
60723;DHT22;46574;52.818;6.516;2022-10-31T03:40:02;11.70;99.90
60723;DHT22;46574;52.818;6.516;2022-10-31T03:42:31;11.70;99.90
60723;DHT22;46574;52.818;6.516;2022-10-31T03:45:35;11.70;99.90
60723;DHT22;46574;52.818;6.516;2022-10-31T03:48:02;11.70;99.90
60723;DHT22;46574;52.818;6.516;2022-10-31T03:50:40;11.70;99.90
60723;DHT22;46574;52.818;6.516;2022-10-31T03:53:25;11.70;99.90
60723;DHT22;46574;52.818;6.516;2022-10-31T03:56:01;11.60;99.90
60723;DHT22;46574;52.818;6.516;2022-10-31T03:58:37;11.60;99.90
60723;DHT22;46574;52.818;6.516;2022-10-31T04:01:06;11.60;99.90
60723;DHT22;46574;52.818;6.516;2022-10-31T04:03:36;11.60;99.90
60723;DHT22;46574;52.818;6.516;2022-10-31T04:06:06;11.60;99.90
60723;DHT22;46574;52.818;6.516;2022-10-31T04:08:42;11.50;99.90
60723;DHT22;46574;52.818;6.516;2022-10-31T04:11:11;11.50;99.90
60723;DHT22;46574;52.818;6.516;2022-10-31T04:13:39;11.50;99.90
60723;DHT22;46574;52.818;6.516;2022-10-31T04:16:06;11.50;99.90
60723;DHT22;46574;52.818;6.516;2022-10-31T04:18:32;11.40;99.90
60723;DHT22;46574;52.818;6.516;2022-10-31T04:21:05;11.40;99.90
60723;DHT22;46574;52.818;6.516;2022-10-31T04:23:31;11.40;99.90
60723;DHT22;46574;52.818;6.516;2022-10-31T04:25:57;11.40;99.90
60723;DHT22;46574;52.818;6.516;2022-10-31T04:28:23;11.30;99.90
60723;DHT22;46574;52.818;6.516;2022-10-31T04:30:49;11.30;99.90
60723;DHT22;46574;52.818;6.516;2022-10-31T04:33:15;11.20;99.90
60723;DHT22;46574;52.818;6.516;2022-10-31T04:35:41;11.20;99.90
60723;DHT22;46574;52.818;6.516;2022-10-31T04:38:06;11.10;99.90
60723;DHT22;46574;52.818;6.516;2022-10-31T04:40:32;11.00;99.90
60723;DHT22;46574;52.818;6.516;2022-10-31T04:42:58;11.00;99.90
60723;DHT22;46574;52.818;6.516;2022-10-31T04:45:23;10.90;99.90
60723;DHT22;46574;52.818;6.516;2022-10-31T04:47:49;11.00;99.90
60723;DHT22;46574;52.818;6.516;2022-10-31T04:50:14;10.90;99.90
60723;DHT22;46574;52.818;6.516;2022-10-31T04:52:41;10.90;99.90
60723;DHT22;46574;52.818;6.516;2022-10-31T04:55:08;10.90;99.90
60723;DHT22;46574;52.818;6.516;2022-10-31T04:57:43;10.90;99.90
60723;DHT22;46574;52.818;6.516;2022-10-31T05:00:11;10.90;99.90
60723;DHT22;46574;52.818;6.516;2022-10-31T05:02:45;10.90;99.90
60723;DHT22;46574;52.818;6.516;2022-10-31T05:05:15;11.00;99.90
60723;DHT22;46574;52.818;6.516;2022-10-31T05:07:42;11.00;99.90
60723;DHT22;46574;52.818;6.516;2022-10-31T05:10:10;11.00;99.90
60723;DHT22;46574;52.818;6.516;2022-10-31T05:12:37;11.00;99.90
60723;DHT22;46574;52.818;6.516;2022-10-31T05:15:03;11.00;99.90
60723;DHT22;46574;52.818;6.516;2022-10-31T05:17:30;11.00;99.90
60723;DHT22;46574;52.818;6.516;2022-10-31T05:19:56;10.90;99.90
60723;DHT22;46574;52.818;6.516;2022-10-31T05:22:22;10.90;99.90
60723;DHT22;46574;52.818;6.516;2022-10-31T05:24:47;10.80;99.90
60723;DHT22;46574;52.818;6.516;2022-10-31T05:27:13;10.80;99.90
60723;DHT22;46574;52.818;6.516;2022-10-31T05:29:38;10.70;99.90
60723;DHT22;46574;52.818;6.516;2022-10-31T05:32:04;10.70;99.90
60723;DHT22;46574;52.818;6.516;2022-10-31T05:34:30;10.60;99.90
60723;DHT22;46574;52.818;6.516;2022-10-31T05:36:55;10.60;99.90
60723;DHT22;46574;52.818;6.516;2022-10-31T05:39:21;10.60;99.90
60723;DHT22;46574;52.818;6.516;2022-10-31T05:41:46;10.60;99.90
60723;DHT22;46574;52.818;6.516;2022-10-31T05:44:12;10.60;99.90
60723;DHT22;46574;52.818;6.516;2022-10-31T05:46:38;10.60;99.90
60723;DHT22;46574;52.818;6.516;2022-10-31T05:49:03;10.60;99.90
60723;DHT22;46574;52.818;6.516;2022-10-31T05:51:29;10.50;99.90
60723;DHT22;46574;52.818;6.516;2022-10-31T05:53:54;10.50;99.90
60723;DHT22;46574;52.818;6.516;2022-10-31T05:56:20;10.50;99.90
60723;DHT22;46574;52.818;6.516;2022-10-31T05:58:45;10.40;99.90
60723;DHT22;46574;52.818;6.516;2022-10-31T06:01:11;10.40;99.90
60723;DHT22;46574;52.818;6.516;2022-10-31T06:03:37;10.30;99.90
60723;DHT22;46574;52.818;6.516;2022-10-31T06:06:02;10.40;99.90
60723;DHT22;46574;52.818;6.516;2022-10-31T06:08:28;10.30;99.90
60723;DHT22;46574;52.818;6.516;2022-10-31T06:10:54;10.30;99.90
60723;DHT22;46574;52.818;6.516;2022-10-31T06:13:19;10.30;99.90
60723;DHT22;46574;52.818;6.516;2022-10-31T06:15:45;10.20;99.90
60723;DHT22;46574;52.818;6.516;2022-10-31T06:18:11;10.20;99.90
60723;DHT22;46574;52.818;6.516;2022-10-31T06:20:36;10.30;99.90
60723;DHT22;46574;52.818;6.516;2022-10-31T06:23:02;10.30;99.90
60723;DHT22;46574;52.818;6.516;2022-10-31T06:25:28;10.30;99.90
60723;DHT22;46574;52.818;6.516;2022-10-31T06:27:54;10.30;99.90
60723;DHT22;46574;52.818;6.516;2022-10-31T06:30:20;10.40;99.90
60723;DHT22;46574;52.818;6.516;2022-10-31T06:32:46;10.40;99.90
60723;DHT22;46574;52.818;6.516;2022-10-31T06:35:12;10.30;99.90
60723;DHT22;46574;52.818;6.516;2022-10-31T06:37:37;10.30;99.90
60723;DHT22;46574;52.818;6.516;2022-10-31T06:40:04;10.40;99.90
60723;DHT22;46574;52.818;6.516;2022-10-31T06:42:29;10.40;99.90
60723;DHT22;46574;52.818;6.516;2022-10-31T06:44:55;10.30;99.90
60723;DHT22;46574;52.818;6.516;2022-10-31T06:47:20;10.30;99.90
60723;DHT22;46574;52.818;6.516;2022-10-31T06:49:46;10.30;99.90
60723;DHT22;46574;52.818;6.516;2022-10-31T06:52:12;10.30;99.90
60723;DHT22;46574;52.818;6.516;2022-10-31T06:54:37;10.30;99.90
60723;DHT22;46574;52.818;6.516;2022-10-31T06:57:03;10.30;99.90
60723;DHT22;46574;52.818;6.516;2022-10-31T06:59:29;10.30;99.90
60723;DHT22;46574;52.818;6.516;2022-10-31T07:01:54;10.30;99.90
60723;DHT22;46574;52.818;6.516;2022-10-31T07:04:21;10.30;99.90
60723;DHT22;46574;52.818;6.516;2022-10-31T07:06:50;10.20;99.90
60723;DHT22;46574;52.818;6.516;2022-10-31T07:09:16;10.20;99.90
60723;DHT22;46574;52.818;6.516;2022-10-31T07:11:42;10.20;99.90
60723;DHT22;46574;52.818;6.516;2022-10-31T07:14:07;10.10;99.90
60723;DHT22;46574;52.818;6.516;2022-10-31T07:16:33;10.20;99.90
60723;DHT22;46574;52.818;6.516;2022-10-31T07:18:59;10.20;99.90
60723;DHT22;46574;52.818;6.516;2022-10-31T07:21:24;10.30;99.90
60723;DHT22;46574;52.818;6.516;2022-10-31T07:23:50;10.20;99.90
60723;DHT22;46574;52.818;6.516;2022-10-31T07:26:15;10.20;99.90
60723;DHT22;46574;52.818;6.516;2022-10-31T07:28:41;10.30;99.90
60723;DHT22;46574;52.818;6.516;2022-10-31T07:31:07;10.30;99.90
60723;DHT22;46574;52.818;6.516;2022-10-31T07:33:32;10.30;99.90
60723;DHT22;46574;52.818;6.516;2022-10-31T07:35:58;10.30;99.90
60723;DHT22;46574;52.818;6.516;2022-10-31T07:38:23;10.30;99.90
60723;DHT22;46574;52.818;6.516;2022-10-31T07:40:50;10.40;99.90
60723;DHT22;46574;52.818;6.516;2022-10-31T07:43:19;10.40;99.90
60723;DHT22;46574;52.818;6.516;2022-10-31T07:45:52;10.40;99.90
60723;DHT22;46574;52.818;6.516;2022-10-31T07:48:18;10.40;99.90
60723;DHT22;46574;52.818;6.516;2022-10-31T07:50:44;10.40;99.90
60723;DHT22;46574;52.818;6.516;2022-10-31T07:53:12;10.40;99.90
60723;DHT22;46574;52.818;6.516;2022-10-31T07:55:38;10.50;99.90
60723;DHT22;46574;52.818;6.516;2022-10-31T07:58:09;10.50;99.90
60723;DHT22;46574;52.818;6.516;2022-10-31T08:00:36;10.60;99.90
60723;DHT22;46574;52.818;6.516;2022-10-31T08:03:04;10.60;99.90
60723;DHT22;46574;52.818;6.516;2022-10-31T08:05:31;10.60;99.90
60723;DHT22;46574;52.818;6.516;2022-10-31T08:07:57;10.60;99.90
60723;DHT22;46574;52.818;6.516;2022-10-31T08:10:23;10.60;99.90
60723;DHT22;46574;52.818;6.516;2022-10-31T08:13:15;10.60;99.90
60723;DHT22;46574;52.818;6.516;2022-10-31T08:15:41;10.60;99.90
60723;DHT22;46574;52.818;6.516;2022-10-31T08:18:16;10.70;99.90
60723;DHT22;46574;52.818;6.516;2022-10-31T08:20:42;10.80;99.90
60723;DHT22;46574;52.818;6.516;2022-10-31T08:23:09;10.80;99.90
60723;DHT22;46574;52.818;6.516;2022-10-31T08:25:35;10.90;99.90
60723;DHT22;46574;52.818;6.516;2022-10-31T08:28:01;10.90;99.90
60723;DHT22;46574;52.818;6.516;2022-10-31T08:30:30;11.00;99.90
60723;DHT22;46574;52.818;6.516;2022-10-31T08:33:11;11.10;99.90
60723;DHT22;46574;52.818;6.516;2022-10-31T08:35:37;11.20;99.90
60723;DHT22;46574;52.818;6.516;2022-10-31T08:38:03;11.20;99.90
60723;DHT22;46574;52.818;6.516;2022-10-31T08:40:30;11.30;99.90
60723;DHT22;46574;52.818;6.516;2022-10-31T08:43:11;11.40;99.90
60723;DHT22;46574;52.818;6.516;2022-10-31T08:45:37;11.50;99.90
60723;DHT22;46574;52.818;6.516;2022-10-31T08:48:05;11.60;99.90
60723;DHT22;46574;52.818;6.516;2022-10-31T08:50:33;11.60;99.90
60723;DHT22;46574;52.818;6.516;2022-10-31T08:53:09;11.70;99.90
60723;DHT22;46574;52.818;6.516;2022-10-31T08:55:37;11.70;99.90
60723;DHT22;46574;52.818;6.516;2022-10-31T08:58:05;11.70;99.90
60723;DHT22;46574;52.818;6.516;2022-10-31T09:00:32;11.70;99.90
60723;DHT22;46574;52.818;6.516;2022-10-31T09:03:03;11.80;99.90
60723;DHT22;46574;52.818;6.516;2022-10-31T09:05:29;11.80;99.90
60723;DHT22;46574;52.818;6.516;2022-10-31T09:07:59;11.80;99.90
60723;DHT22;46574;52.818;6.516;2022-10-31T09:10:26;11.80;99.90
60723;DHT22;46574;52.818;6.516;2022-10-31T09:13:04;11.90;99.90
60723;DHT22;46574;52.818;6.516;2022-10-31T09:15:33;11.90;99.90
60723;DHT22;46574;52.818;6.516;2022-10-31T09:17:58;12.10;99.90
60723;DHT22;46574;52.818;6.516;2022-10-31T09:20:25;12.10;99.90
60723;DHT22;46574;52.818;6.516;2022-10-31T09:23:05;12.20;99.90
60723;DHT22;46574;52.818;6.516;2022-10-31T09:25:32;12.20;99.90
60723;DHT22;46574;52.818;6.516;2022-10-31T09:27:59;12.20;99.90
60723;DHT22;46574;52.818;6.516;2022-10-31T09:30:29;12.20;99.90
60723;DHT22;46574;52.818;6.516;2022-10-31T09:33:06;12.30;99.90
60723;DHT22;46574;52.818;6.516;2022-10-31T09:35:33;12.30;99.90
60723;DHT22;46574;52.818;6.516;2022-10-31T09:38:05;12.30;99.90
60723;DHT22;46574;52.818;6.516;2022-10-31T09:40:36;12.30;99.90
60723;DHT22;46574;52.818;6.516;2022-10-31T09:43:09;12.40;99.90
60723;DHT22;46574;52.818;6.516;2022-10-31T09:51:04;12.50;99.90
60723;DHT22;46574;52.818;6.516;2022-10-31T09:53:47;12.60;99.90
60723;DHT22;46574;52.818;6.516;2022-10-31T09:56:17;12.70;99.90
60723;DHT22;46574;52.818;6.516;2022-10-31T09:58:53;12.70;99.90
60723;DHT22;46574;52.818;6.516;2022-10-31T10:09:49;12.80;99.90
60723;DHT22;46574;52.818;6.516;2022-10-31T10:17:59;13.00;99.90
60723;DHT22;46574;52.818;6.516;2022-10-31T10:25:44;13.30;99.90
60723;DHT22;46574;52.818;6.516;2022-10-31T10:30:48;13.60;99.90
60723;DHT22;46574;52.818;6.516;2022-10-31T10:35:53;14.00;99.90
60723;DHT22;46574;52.818;6.516;2022-10-31T10:40:48;14.20;99.90
60723;DHT22;46574;52.818;6.516;2022-10-31T10:43:35;14.30;99.90
60723;DHT22;46574;52.818;6.516;2022-10-31T10:49:19;14.50;99.90
60723;DHT22;46574;52.818;6.516;2022-10-31T10:51:59;14.60;99.90
60723;DHT22;46574;52.818;6.516;2022-10-31T10:57:22;14.70;99.90
60723;DHT22;46574;52.818;6.516;2022-10-31T10:59:52;14.80;99.90
60723;DHT22;46574;52.818;6.516;2022-10-31T11:02:19;14.80;99.90
60723;DHT22;46574;52.818;6.516;2022-10-31T11:04:52;14.90;99.90
60723;DHT22;46574;52.818;6.516;2022-10-31T11:07:19;15.00;99.90
60723;DHT22;46574;52.818;6.516;2022-10-31T11:09:45;15.00;99.90
60723;DHT22;46574;52.818;6.516;2022-10-31T11:12:32;15.00;99.90
60723;DHT22;46574;52.818;6.516;2022-10-31T11:15:08;15.10;99.90
60723;DHT22;46574;52.818;6.516;2022-10-31T11:17:42;15.20;99.90
60723;DHT22;46574;52.818;6.516;2022-10-31T11:22:44;15.20;99.90
60723;DHT22;46574;52.818;6.516;2022-10-31T11:25:36;15.20;99.90
60723;DHT22;46574;52.818;6.516;2022-10-31T11:28:04;15.20;99.90
60723;DHT22;46574;52.818;6.516;2022-10-31T11:30:42;15.20;99.90
60723;DHT22;46574;52.818;6.516;2022-10-31T11:33:19;15.20;99.90
60723;DHT22;46574;52.818;6.516;2022-10-31T11:35:47;15.30;99.90
60723;DHT22;46574;52.818;6.516;2022-10-31T11:38:21;15.30;99.90
60723;DHT22;46574;52.818;6.516;2022-10-31T11:43:37;15.30;99.90
60723;DHT22;46574;52.818;6.516;2022-10-31T11:46:19;15.40;99.90
60723;DHT22;46574;52.818;6.516;2022-10-31T11:48:52;15.40;99.90
60723;DHT22;46574;52.818;6.516;2022-10-31T11:51:37;15.40;99.90
60723;DHT22;46574;52.818;6.516;2022-10-31T11:54:03;15.60;99.90
60723;DHT22;46574;52.818;6.516;2022-10-31T11:56:42;15.60;99.90
60723;DHT22;46574;52.818;6.516;2022-10-31T11:59:31;15.70;99.90
60723;DHT22;46574;52.818;6.516;2022-10-31T12:01:58;15.70;99.90
60723;DHT22;46574;52.818;6.516;2022-10-31T12:04:34;15.80;99.90
60723;DHT22;46574;52.818;6.516;2022-10-31T12:07:03;15.90;99.90
60723;DHT22;46574;52.818;6.516;2022-10-31T12:09:30;15.90;99.90
60723;DHT22;46574;52.818;6.516;2022-10-31T12:17:50;16.10;99.90
60723;DHT22;46574;52.818;6.516;2022-10-31T12:25:44;16.00;99.90
60723;DHT22;46574;52.818;6.516;2022-10-31T12:36:01;15.90;99.90
60723;DHT22;46574;52.818;6.516;2022-10-31T12:41:47;15.90;99.90
60723;DHT22;46574;52.818;6.516;2022-10-31T12:52:54;15.80;99.90
60723;DHT22;46574;52.818;6.516;2022-10-31T12:58:35;15.90;99.90
60723;DHT22;46574;52.818;6.516;2022-10-31T13:01:18;15.90;99.90
60723;DHT22;46574;52.818;6.516;2022-10-31T13:03:58;16.00;99.90
60723;DHT22;46574;52.818;6.516;2022-10-31T13:06:31;16.00;99.90
60723;DHT22;46574;52.818;6.516;2022-10-31T13:09:09;16.10;99.90
60723;DHT22;46574;52.818;6.516;2022-10-31T13:14:15;16.20;99.90
60723;DHT22;46574;52.818;6.516;2022-10-31T13:16:46;16.20;99.90
60723;DHT22;46574;52.818;6.516;2022-10-31T13:19:22;16.30;99.90
60723;DHT22;46574;52.818;6.516;2022-10-31T13:27:17;16.50;99.90
60723;DHT22;46574;52.818;6.516;2022-10-31T13:30:04;16.40;99.90
60723;DHT22;46574;52.818;6.516;2022-10-31T13:35:29;16.30;99.90
60723;DHT22;46574;52.818;6.516;2022-10-31T13:38:44;16.30;99.90
60723;DHT22;46574;52.818;6.516;2022-10-31T13:44:08;16.40;99.90
60723;DHT22;46574;52.818;6.516;2022-10-31T13:46:40;16.40;99.90
60723;DHT22;46574;52.818;6.516;2022-10-31T13:54:45;16.40;99.90
60723;DHT22;46574;52.818;6.516;2022-10-31T13:57:29;16.40;99.90
60723;DHT22;46574;52.818;6.516;2022-10-31T13:59:58;16.40;99.90
60723;DHT22;46574;52.818;6.516;2022-10-31T14:02:33;16.30;99.90
60723;DHT22;46574;52.818;6.516;2022-10-31T14:05:21;16.30;99.90
60723;DHT22;46574;52.818;6.516;2022-10-31T14:07:47;16.20;99.90
60723;DHT22;46574;52.818;6.516;2022-10-31T14:10:30;16.20;99.90
60723;DHT22;46574;52.818;6.516;2022-10-31T14:13:08;16.20;99.90
60723;DHT22;46574;52.818;6.516;2022-10-31T14:15:43;16.20;99.90
60723;DHT22;46574;52.818;6.516;2022-10-31T14:18:34;16.20;99.90
60723;DHT22;46574;52.818;6.516;2022-10-31T14:21:01;16.30;99.90
60723;DHT22;46574;52.818;6.516;2022-10-31T14:28:47;16.20;99.90
60723;DHT22;46574;52.818;6.516;2022-10-31T14:34:35;16.20;99.90
60723;DHT22;46574;52.818;6.516;2022-10-31T14:50:54;16.10;99.90
60723;DHT22;46574;52.818;6.516;2022-10-31T14:53:31;16.00;99.90
60723;DHT22;46574;52.818;6.516;2022-10-31T14:55:59;16.00;99.90
60723;DHT22;46574;52.818;6.516;2022-10-31T14:58:35;15.90;99.90
60723;DHT22;46574;52.818;6.516;2022-10-31T15:01:02;16.00;99.90
60723;DHT22;46574;52.818;6.516;2022-10-31T15:03:35;15.90;99.90
60723;DHT22;46574;52.818;6.516;2022-10-31T15:06:14;15.90;99.90
60723;DHT22;46574;52.818;6.516;2022-10-31T15:08:50;15.90;99.90
60723;DHT22;46574;52.818;6.516;2022-10-31T15:11:24;15.90;99.90
60723;DHT22;46574;52.818;6.516;2022-10-31T15:13:57;15.90;99.90
60723;DHT22;46574;52.818;6.516;2022-10-31T15:16:32;15.90;99.90
60723;DHT22;46574;52.818;6.516;2022-10-31T15:19:02;15.80;99.90
60723;DHT22;46574;52.818;6.516;2022-10-31T15:21:28;15.80;99.90
60723;DHT22;46574;52.818;6.516;2022-10-31T15:23:56;15.70;99.90
60723;DHT22;46574;52.818;6.516;2022-10-31T15:26:26;15.70;99.90
60723;DHT22;46574;52.818;6.516;2022-10-31T15:29:02;15.70;99.90
60723;DHT22;46574;52.818;6.516;2022-10-31T15:31:28;15.60;99.90
60723;DHT22;46574;52.818;6.516;2022-10-31T15:33:55;15.60;99.90
60723;DHT22;46574;52.818;6.516;2022-10-31T15:36:25;15.50;99.90
60723;DHT22;46574;52.818;6.516;2022-10-31T15:38:51;15.50;99.90
60723;DHT22;46574;52.818;6.516;2022-10-31T15:41:48;15.50;99.90
60723;DHT22;46574;52.818;6.516;2022-10-31T15:44:19;15.40;99.90
60723;DHT22;46574;52.818;6.516;2022-10-31T15:47:03;15.40;99.90
60723;DHT22;46574;52.818;6.516;2022-10-31T15:49:31;15.30;99.90
60723;DHT22;46574;52.818;6.516;2022-10-31T15:52:07;15.30;99.90
60723;DHT22;46574;52.818;6.516;2022-10-31T15:54:40;15.30;99.90
60723;DHT22;46574;52.818;6.516;2022-10-31T15:57:12;15.30;99.90
60723;DHT22;46574;52.818;6.516;2022-10-31T15:59:40;15.30;99.90
60723;DHT22;46574;52.818;6.516;2022-10-31T16:02:11;15.30;99.90
60723;DHT22;46574;52.818;6.516;2022-10-31T16:05:20;15.20;99.90
60723;DHT22;46574;52.818;6.516;2022-10-31T16:07:48;15.20;99.90
60723;DHT22;46574;52.818;6.516;2022-10-31T16:10:25;15.10;99.90
60723;DHT22;46574;52.818;6.516;2022-10-31T16:12:51;15.00;99.90
60723;DHT22;46574;52.818;6.516;2022-10-31T16:15:19;15.00;99.90
60723;DHT22;46574;52.818;6.516;2022-10-31T16:17:48;15.00;99.90
60723;DHT22;46574;52.818;6.516;2022-10-31T16:20:21;15.00;99.90
60723;DHT22;46574;52.818;6.516;2022-10-31T16:22:49;15.00;99.90
60723;DHT22;46574;52.818;6.516;2022-10-31T16:25:48;15.00;99.90
60723;DHT22;46574;52.818;6.516;2022-10-31T16:28:25;15.00;99.90
60723;DHT22;46574;52.818;6.516;2022-10-31T16:30:56;15.00;99.90
60723;DHT22;46574;52.818;6.516;2022-10-31T16:35:50;14.90;99.90
60723;DHT22;46574;52.818;6.516;2022-10-31T16:38:16;14.90;99.90
60723;DHT22;46574;52.818;6.516;2022-10-31T16:40:42;14.90;99.90
60723;DHT22;46574;52.818;6.516;2022-10-31T16:43:12;15.00;99.90
60723;DHT22;46574;52.818;6.516;2022-10-31T16:45:51;14.90;99.90
60723;DHT22;46574;52.818;6.516;2022-10-31T16:48:19;14.90;99.90
60723;DHT22;46574;52.818;6.516;2022-10-31T16:50:47;14.90;99.90
60723;DHT22;46574;52.818;6.516;2022-10-31T16:53:14;14.80;99.90
60723;DHT22;46574;52.818;6.516;2022-10-31T16:55:43;14.80;99.90
60723;DHT22;46574;52.818;6.516;2022-10-31T16:58:15;14.80;99.90
60723;DHT22;46574;52.818;6.516;2022-10-31T17:00:41;14.90;99.90
60723;DHT22;46574;52.818;6.516;2022-10-31T17:03:07;14.90;99.90
60723;DHT22;46574;52.818;6.516;2022-10-31T17:05:34;14.90;99.90
60723;DHT22;46574;52.818;6.516;2022-10-31T17:08:01;14.90;99.90
60723;DHT22;46574;52.818;6.516;2022-10-31T17:10:26;14.90;99.90
60723;DHT22;46574;52.818;6.516;2022-10-31T17:12:53;15.00;99.90
60723;DHT22;46574;52.818;6.516;2022-10-31T17:15:22;15.00;99.90
60723;DHT22;46574;52.818;6.516;2022-10-31T17:17:49;15.00;99.90
60723;DHT22;46574;52.818;6.516;2022-10-31T17:20:34;14.90;99.90
60723;DHT22;46574;52.818;6.516;2022-10-31T17:23:00;14.90;99.90
60723;DHT22;46574;52.818;6.516;2022-10-31T17:25:28;14.90;99.90
60723;DHT22;46574;52.818;6.516;2022-10-31T17:27:54;14.90;99.90
60723;DHT22;46574;52.818;6.516;2022-10-31T17:30:21;15.00;99.90
60723;DHT22;46574;52.818;6.516;2022-10-31T17:32:47;14.90;99.90
60723;DHT22;46574;52.818;6.516;2022-10-31T17:35:14;15.00;99.90
60723;DHT22;46574;52.818;6.516;2022-10-31T17:37:41;15.00;99.90
60723;DHT22;46574;52.818;6.516;2022-10-31T17:40:08;15.00;99.90
60723;DHT22;46574;52.818;6.516;2022-10-31T17:42:34;15.00;99.90
60723;DHT22;46574;52.818;6.516;2022-10-31T17:45:00;15.00;99.90
60723;DHT22;46574;52.818;6.516;2022-10-31T17:47:26;15.00;99.90
60723;DHT22;46574;52.818;6.516;2022-10-31T17:49:51;15.00;99.90
60723;DHT22;46574;52.818;6.516;2022-10-31T17:52:18;15.00;99.90
60723;DHT22;46574;52.818;6.516;2022-10-31T17:54:44;15.10;99.90
60723;DHT22;46574;52.818;6.516;2022-10-31T17:57:10;15.10;99.90
60723;DHT22;46574;52.818;6.516;2022-10-31T17:59:36;15.10;99.90
60723;DHT22;46574;52.818;6.516;2022-10-31T18:02:02;15.10;99.90
60723;DHT22;46574;52.818;6.516;2022-10-31T18:04:33;15.10;99.90
60723;DHT22;46574;52.818;6.516;2022-10-31T18:06:59;15.10;99.90
60723;DHT22;46574;52.818;6.516;2022-10-31T18:09:25;15.10;99.90
60723;DHT22;46574;52.818;6.516;2022-10-31T18:11:50;15.10;99.90
60723;DHT22;46574;52.818;6.516;2022-10-31T18:14:16;15.10;99.90
60723;DHT22;46574;52.818;6.516;2022-10-31T18:16:41;15.10;99.90
60723;DHT22;46574;52.818;6.516;2022-10-31T18:19:09;15.10;99.90
60723;DHT22;46574;52.818;6.516;2022-10-31T18:21:36;15.10;99.90
60723;DHT22;46574;52.818;6.516;2022-10-31T18:24:01;15.10;99.90